Cunnamulla, Australia
Current Conditions -  °F | °C
As of 5:00 AM on Friday 24 Oct 2014 (Local Time) from YBCV Reporting Station
Clear Clear  
Wind Chill: 66°   Ceiling: Unl
Heat Index: 66°   Visibility: 6mi
Dew Point: 48°   Wind: 6mph
Humidity: 52%   Direction: 10°N
Pressure: 30.06"   Gusts: NA
Location:  28.07°S, 145.68°E
Report Text: YBCV 231900Z AUTO 01005KT 9999 // NCD 19/09 Q1018
Loading
Personal Weather Stations






























Interactive Weather Map
Tropical Storm Tracking
New forecast layout! Learn more

10-Day Weather Forecast

Advertisements
Track Severe Weather on mobile